Accueil
METAR-TAF:

METAR-TAF

Aéroports :

Aéroport de Stockholm-Arlanda

Stockholm-Arlanda, Suède

latitude: 59-39N, longitude: 017-57E, altitude: 38 m

Observation

Le bulletin a été fait il y a 37 minutes, à 10:50 UTC
Vent 9 kt de ouest/nord-ouest
Température -5°C
Humidité 73%
Pression 1001 hPa
Visibilité 10 km ou plus
pas de nuages en-dessous de 1500 mètres et pas de cumulonimbus.

METAR: ESSA 181050Z 29009KT CAVOK M05/M09 Q1001 R01L/19//55 R08/19//61 R01R/SNOCLO NOSIG

Heure: 12:27 (11:27 UTC)

Prévision

Le bulletin a été fait il y a 5 heures et 57 minutes, à 05:30 UTC
Prévision valable du 18 à 06 UTC au 19 à 06 UTC
Vent 12 kt de ouest
Visibilité 10 km ou plus
pas de nuages en-dessous de 1500 mètres et pas de cumulonimbus.

TAF: ESSA 180530Z 1806/1906 28012KT CAVOK

Observations et prévisions météorologiques de plus de 4000 aéroports (messages METAR et TAF).

Les stations disponibles sont représentées par des disques jaunes et rouges sur la carte.

Passer la souris dessus pour voir le nom de la station.

Cliquer dessus pour voir les observations et prévisions météorologiques.

Pour changer de carte: cliquez sur les boutons verts avec une croix noire pour zoomer, sur le bouton vert avec un tiret pour effectuer un zoom arrière, ou sur les flèches vertes pour les cartes adjacentes.


METAR-TAF: